createdAt,value
2023-04-11T00:01:52.674Z,11.13
2023-04-11T00:04:21.002Z,11.12
2023-04-11T00:06:48.764Z,11.11
2023-04-11T00:09:16.906Z,11.11
2023-04-11T00:11:44.321Z,11.13
2023-04-11T00:14:12.741Z,11.12
2023-04-11T00:16:41.623Z,11.13
2023-04-11T00:19:09.646Z,11.12
2023-04-11T00:21:40.213Z,11.12
2023-04-11T00:24:08.412Z,11.13
2023-04-11T00:26:35.838Z,11.12
2023-04-11T00:29:03.352Z,11.09
2023-04-11T00:31:30.913Z,11.08
2023-04-11T00:33:58.423Z,11.06
2023-04-11T00:36:26.912Z,11.07
2023-04-11T00:38:58.701Z,11.07
2023-04-11T00:41:26.465Z,11.09
2023-04-11T00:43:54.645Z,11.11
2023-04-11T00:46:25.095Z,11.11
2023-04-11T00:48:53.046Z,11.14
2023-04-11T00:51:21.350Z,11.15
2023-04-11T00:53:48.986Z,11.17
2023-04-11T00:56:16.583Z,11.18
2023-04-11T00:58:44.330Z,11.19
2023-04-11T01:01:16.807Z,11.19
2023-04-11T01:03:45.482Z,11.19
2023-04-11T01:06:14.318Z,11.18
2023-04-11T01:08:42.757Z,11.16
2023-04-11T01:11:12.190Z,11.15
2023-04-11T01:13:42.089Z,11.15
2023-04-11T01:16:10.255Z,11.15
2023-04-11T01:18:37.904Z,11.14
2023-04-11T01:21:05.437Z,11.14
2023-04-11T01:23:34.356Z,11.13
2023-04-11T01:26:01.710Z,11.11
2023-04-11T01:28:29.343Z,11.08
2023-04-11T01:30:57.899Z,11.06
2023-04-11T01:33:26.098Z,11.07
2023-04-11T01:35:53.328Z,11.07
2023-04-11T01:38:21.355Z,11.07
2023-04-11T01:40:48.921Z,11.07
2023-04-11T01:43:16.433Z,11.05
2023-04-11T01:45:43.755Z,11.05
2023-04-11T01:48:11.345Z,10.99
2023-04-11T01:50:39.413Z,10.97
2023-04-11T01:53:06.830Z,10.95
2023-04-11T01:55:34.135Z,10.91
2023-04-11T01:58:01.377Z,10.86
2023-04-11T02:00:28.690Z,10.86
2023-04-11T02:02:56.567Z,10.84
2023-04-11T02:05:24.079Z,10.84
2023-04-11T02:07:51.656Z,10.86
2023-04-11T02:10:19.851Z,10.89
2023-04-11T02:12:47.173Z,10.91
2023-04-11T02:15:14.763Z,10.92
2023-04-11T02:17:45.764Z,10.94
2023-04-11T02:20:13.980Z,10.95
2023-04-11T02:22:41.677Z,10.96
2023-04-11T02:25:09.608Z,10.97
2023-04-11T02:27:37.217Z,10.99
2023-04-11T02:30:06.231Z,10.95
2023-04-11T02:32:34.851Z,10.93
2023-04-11T02:35:07.957Z,10.95
2023-04-11T02:37:35.883Z,10.96
2023-04-11T02:40:04.990Z,10.95
2023-04-11T02:42:32.445Z,10.93
2023-04-11T02:45:00.413Z,10.91
2023-04-11T02:47:29.740Z,10.88
2023-04-11T02:50:02.681Z,10.81
2023-04-11T02:52:35.773Z,10.69
2023-04-11T02:55:04.023Z,10.55
2023-04-11T02:57:31.839Z,10.46
2023-04-11T02:59:59.477Z,10.41
2023-04-11T03:02:37.841Z,10.45
2023-04-11T03:05:06.651Z,10.51
2023-04-11T03:07:38.764Z,10.54
2023-04-11T03:10:07.894Z,10.52
2023-04-11T03:12:35.489Z,10.51
2023-04-11T03:15:05.620Z,10.51
2023-04-11T03:17:34.009Z,10.52
2023-04-11T03:20:02.592Z,10.53
2023-04-11T03:22:31.580Z,10.56
2023-04-11T03:24:59.352Z,10.61
2023-04-11T03:27:27.434Z,10.65
2023-04-11T03:30:03.195Z,10.70
2023-04-11T03:32:42.251Z,10.75
2023-04-11T03:35:10.525Z,10.77
2023-04-11T03:37:41.514Z,10.80
2023-04-11T03:40:10.057Z,10.84
2023-04-11T03:42:40.719Z,10.87
2023-04-11T03:45:13.858Z,10.85
2023-04-11T03:47:41.646Z,10.84
2023-04-11T03:50:10.381Z,10.87
2023-04-11T03:52:44.743Z,10.95
2023-04-11T03:55:15.570Z,11.04
2023-04-11T03:57:44.162Z,11.12
2023-04-11T04:00:12.558Z,11.18
2023-04-11T04:02:49.589Z,11.25
2023-04-11T04:05:17.368Z,11.32
2023-04-11T04:07:45.508Z,11.39
2023-04-11T04:10:23.433Z,11.49
2023-04-11T04:12:53.869Z,11.59
2023-04-11T04:15:24.736Z,11.72
2023-04-11T04:17:55.463Z,11.85
2023-04-11T04:20:34.255Z,12.00
2023-04-11T04:23:04.738Z,12.15
2023-04-11T04:25:49.673Z,12.27
2023-04-11T04:28:27.445Z,12.35
2023-04-11T04:30:58.380Z,12.44
2023-04-11T04:33:33.180Z,12.56
2023-04-11T04:36:05.979Z,12.72
2023-04-11T04:38:38.666Z,12.84
2023-04-11T04:41:16.002Z,12.98
2023-04-11T04:43:58.524Z,13.12
2023-04-11T04:46:44.006Z,13.26
2023-04-11T04:49:11.763Z,13.32
2023-04-11T04:51:40.706Z,13.39
2023-04-11T04:54:09.050Z,13.47
2023-04-11T04:56:37.480Z,13.48
2023-04-11T04:59:05.305Z,13.49
2023-04-11T05:01:34.212Z,13.53
2023-04-11T05:04:06.139Z,13.54
2023-04-11T05:06:56.062Z,13.56
2023-04-11T05:09:24.415Z,13.62
2023-04-11T05:11:56.741Z,13.70
2023-04-11T05:14:24.923Z,13.75
2023-04-11T05:16:52.809Z,13.79
2023-04-11T05:19:20.288Z,13.81
2023-04-11T05:21:50.766Z,13.79
2023-04-11T05:24:18.212Z,13.74
2023-04-11T05:26:46.216Z,13.64
2023-04-11T05:29:17.887Z,13.59
2023-04-11T05:31:46.465Z,13.53
